| time (UTC) | temp F | wind direction | speed knots | gust knots | rain 1hr in | rain 24hr in | rain mn in | humidity % | barometer mb |
| 20260503203030 | 62 | 210 | 12.2 | 22.6 | 0.00 | 0.09 | 0.09 | 53 | 1009.4 |
| 20260503201533 | 61 | 215 | 11.3 | 20.9 | 0.00 | 0.09 | 0.09 | 59 | 1009.5 |
| 20260503200026 | 57 | 153 | 11.3 | 15.6 | 0.00 | 0.09 | 0.09 | 77 | 1009.8 |
| 20260503194528 | 54 | 144 | 10.4 | 16.5 | 0.00 | 0.09 | 0.09 | 78 | 1010.3 |
| 20260503193032 | 53 | 157 | 9.6 | 14.8 | 0.00 | 0.09 | 0.09 | 81 | 1010.9 |
| 20260503191530 | 51 | 148 | 9.6 | 14.8 | 0.01 | 0.09 | 0.09 | 83 | 1011.0 |
| 20260503190039 | 49 | 140 | 7.0 | 10.4 | 0.03 | 0.09 | 0.09 | 84 | 1011.6 |
| 20260503184529 | 49 | 165 | 4.3 | 7.8 | 0.05 | 0.09 | 0.09 | 83 | 1012.3 |
| 20260503183026 | 49 | 192 | 4.3 | 9.6 | 0.05 | 0.09 | 0.09 | 81 | 1012.9 |
| 20260503181529 | 49 | 224 | 7.8 | 18.2 | 0.06 | 0.08 | 0.08 | 80 | 1013.6 |
| 20260503180028 | 49 | 213 | 4.3 | 10.4 | 0.06 | 0.06 | 0.06 | 82 | 1013.7 |
| 20260503174530 | 49 | 221 | 5.2 | 10.4 | 0.04 | 0.04 | 0.04 | 80 | 1014.0 |
| 20260503173044 | 49 | 213 | 7.8 | 15.6 | 0.03 | 0.03 | 0.03 | 77 | 1014.2 |
| 20260503171526 | 51 | 252 | 7.8 | 14.8 | 0.01 | 0.01 | 0.01 | 73 | 1014.3 |
| 20260503081543 | 42 | 215 | 3.5 | 8.7 | 0.00 | 0.00 | 0.00 | 65 | 1015.2 |
| 20260503071536 | 43 | 214 | 3.5 | 7.0 | 0.00 | 0.00 | 0.00 | 65 | 1015.4 |
| 20260503054535 | 44 | 198 | 3.5 | 6.1 | 0.00 | 0.00 | 0.00 | 63 | 1016.1 |
| 20260503053030 | 44 | 233 | 3.5 | 6.1 | 0.00 | 0.00 | 0.00 | 63 | 1016.2 |
| 20260503051529 | 43 | 199 | 1.7 | 4.3 | 0.00 | 0.00 | 0.00 | 64 | 1016.3 |
| 20260503050029 | 44 | 197 | 2.6 | 6.1 | 0.00 | 0.00 | 0.00 | 63 | 1016.5 |
| 20260503044538 | 44 | 177 | 2.6 | 5.2 | 0.00 | 0.00 | 0.00 | 63 | 1016.4 |
| 20260503043028 | 44 | 194 | 1.7 | 3.5 | 0.00 | 0.00 | 0.00 | 64 | 1016.3 |
| 20260503041528 | 44 | 194 | 1.7 | 3.5 | 0.00 | 0.00 | 0.00 | 63 | 1016.5 |
| 20260503040029 | 44 | 190 | 1.7 | 4.3 | 0.00 | 0.00 | 0.00 | 64 | 1016.6 |
| 20260503034528 | 44 | 186 | 2.6 | 4.3 | 0.00 | 0.00 | 0.00 | 63 | 1016.7 |
| 20260503033029 | 45 | 198 | 1.7 | 5.2 | 0.00 | 0.00 | 0.00 | 61 | 1016.6 |
| 20260503031529 | 46 | 240 | 0.9 | 2.6 | 0.00 | 0.00 | 0.00 | 59 | 1016.7 |
| 20260503030029 | 46 | 0 | 0.0 | 3.5 | 0.00 | 0.00 | 0.00 | 59 | 1016.7 |
| 20260503024530 | 46 | 243 | 0.9 | 2.6 | 0.00 | 0.00 | 0.00 | 59 | 1016.8 |
| 20260503023031 | 46 | 243 | 1.7 | 3.5 | 0.00 | 0.00 | 0.00 | 59 | 1016.8 |
| 20260503021529 | 46 | 243 | 0.9 | 2.6 | 0.00 | 0.00 | 0.00 | 59 | 1016.6 |
| 20260503020027 | 46 | 243 | 0.9 | 2.6 | 0.00 | 0.00 | 0.00 | 60 | 1016.6 |
| 20260503014528 | 45 | 0 | 0.0 | 0.0 | 0.00 | 0.00 | 0.00 | 66 | 1016.6 |
| 20260503013035 | 46 | 0 | 0.0 | 0.0 | 0.00 | 0.00 | 0.00 | 59 | 1016.5 |
| 20260503011530 | 47 | 0 | 0.0 | 0.9 | 0.00 | 0.00 | 0.00 | 57 | 1016.4 |
| 20260503010028 | 49 | 0 | 0.0 | 1.7 | 0.00 | 0.00 | 0.00 | 51 | 1016.5 |
| 20260503004530 | 51 | 243 | 0.0 | 1.7 | 0.00 | 0.00 | 0.00 | 46 | 1016.4 |
| 20260503003026 | 52 | 243 | 0.9 | 2.6 | 0.00 | 0.00 | 0.00 | 43 | 1016.6 |
| 20260503001526 | 52 | 0 | 0.0 | 1.7 | 0.00 | 0.00 | 0.00 | 47 | 1016.6 |
| 20260503000036 | 52 | 243 | 0.9 | 3.5 | 0.00 | 0.00 | 0.00 | 42 | 1016.4 |
| 20260502234531 | 53 | 294 | 0.9 | 5.2 | 0.00 | 0.00 | 0.00 | 42 | 1016.6 |
| 20260502233028 | 53 | 292 | 4.3 | 7.0 | 0.00 | 0.00 | 0.00 | 40 | 1016.6 |
| 20260502231527 | 53 | 300 | 1.7 | 7.0 | 0.00 | 0.00 | 0.00 | 41 | 1016.6 |
| 20260502230031 | 53 | 284 | 3.5 | 6.1 | 0.00 | 0.00 | 0.00 | 41 | 1016.7 |
| 20260502224530 | 53 | 340 | 1.7 | 5.2 | 0.00 | 0.00 | 0.00 | 38 | 1016.7 |
| 20260502223028 | 53 | 306 | 2.6 | 6.1 | 0.00 | 0.00 | 0.00 | 39 | 1016.8 |
| 20260502221534 | 53 | 298 | 4.3 | 7.8 | 0.00 | 0.00 | 0.00 | 38 | 1016.8 |
| 20260502220028 | 53 | 226 | 3.5 | 7.0 | 0.00 | 0.00 | 0.00 | 40 | 1016.8 |
| 20260502214527 | 53 | 146 | 3.5 | 7.0 | 0.00 | 0.00 | 0.00 | 41 | 1016.9 |
| 20260502213028 | 52 | 302 | 2.6 | 6.1 | 0.00 | 0.00 | 0.00 | 39 | 1016.9 |
| 20260502211530 | 52 | 325 | 2.6 | 7.0 | 0.00 | 0.00 | 0.00 | 40 | 1017.0 |
| 20260502210030 | 52 | 232 | 2.6 | 10.4 | 0.00 | 0.00 | 0.00 | 41 | 1017.1 |
| 20260502204527 | 52 | 252 | 3.5 | 7.8 | 0.00 | 0.00 | 0.00 | 42 | 1017.2 |